sensor_id;sensor_type;location;lat;lon;timestamp;P1;durP1;ratioP1;P2;durP2;ratioP2
28760;SDS011;15917;50.014;8.352;2023-03-08T00:02:15;4.43;;;2.10;;
28760;SDS011;15917;50.014;8.352;2023-03-08T00:04:40;7.53;;;2.10;;
28760;SDS011;15917;50.014;8.352;2023-03-08T00:07:06;5.00;;;2.28;;
28760;SDS011;15917;50.014;8.352;2023-03-08T00:09:31;4.38;;;1.92;;
28760;SDS011;15917;50.014;8.352;2023-03-08T00:11:57;4.88;;;2.35;;
28760;SDS011;15917;50.014;8.352;2023-03-08T00:14:23;5.25;;;1.85;;
28760;SDS011;15917;50.014;8.352;2023-03-08T00:16:48;3.72;;;2.08;;
28760;SDS011;15917;50.014;8.352;2023-03-08T00:19:14;5.72;;;1.80;;
28760;SDS011;15917;50.014;8.352;2023-03-08T00:21:40;3.60;;;2.00;;
28760;SDS011;15917;50.014;8.352;2023-03-08T00:24:06;2.67;;;1.63;;
28760;SDS011;15917;50.014;8.352;2023-03-08T00:26:31;6.05;;;2.00;;
28760;SDS011;15917;50.014;8.352;2023-03-08T00:28:57;5.45;;;1.90;;
28760;SDS011;15917;50.014;8.352;2023-03-08T00:31:26;4.50;;;2.25;;
28760;SDS011;15917;50.014;8.352;2023-03-08T00:33:52;4.10;;;1.35;;
28760;SDS011;15917;50.014;8.352;2023-03-08T00:36:19;2.45;;;1.30;;
28760;SDS011;15917;50.014;8.352;2023-03-08T00:38:45;1.85;;;1.10;;
28760;SDS011;15917;50.014;8.352;2023-03-08T00:41:12;2.50;;;1.10;;
28760;SDS011;15917;50.014;8.352;2023-03-08T00:43:40;7.95;;;1.10;;
28760;SDS011;15917;50.014;8.352;2023-03-08T00:46:06;1.40;;;0.90;;
28760;SDS011;15917;50.014;8.352;2023-03-08T00:48:32;1.38;;;1.00;;
28760;SDS011;15917;50.014;8.352;2023-03-08T00:50:57;1.40;;;1.00;;
28760;SDS011;15917;50.014;8.352;2023-03-08T00:53:23;1.52;;;1.20;;
28760;SDS011;15917;50.014;8.352;2023-03-08T00:55:50;1.95;;;1.20;;
28760;SDS011;15917;50.014;8.352;2023-03-08T00:58:17;2.67;;;1.08;;
28760;SDS011;15917;50.014;8.352;2023-03-08T01:00:43;3.10;;;1.10;;
28760;SDS011;15917;50.014;8.352;2023-03-08T01:03:09;2.55;;;1.02;;
28760;SDS011;15917;50.014;8.352;2023-03-08T01:05:41;4.15;;;1.38;;
28760;SDS011;15917;50.014;8.352;2023-03-08T01:08:08;3.20;;;1.73;;
28760;SDS011;15917;50.014;8.352;2023-03-08T01:10:34;2.50;;;1.40;;
28760;SDS011;15917;50.014;8.352;2023-03-08T01:13:00;3.65;;;1.63;;
28760;SDS011;15917;50.014;8.352;2023-03-08T01:15:26;4.85;;;2.00;;
28760;SDS011;15917;50.014;8.352;2023-03-08T01:17:51;2.55;;;1.75;;
28760;SDS011;15917;50.014;8.352;2023-03-08T01:20:17;3.85;;;1.60;;
28760;SDS011;15917;50.014;8.352;2023-03-08T01:22:43;2.70;;;1.60;;
28760;SDS011;15917;50.014;8.352;2023-03-08T01:25:08;2.83;;;1.70;;
28760;SDS011;15917;50.014;8.352;2023-03-08T01:27:34;2.88;;;1.38;;
28760;SDS011;15917;50.014;8.352;2023-03-08T01:30:00;1.60;;;1.02;;
28760;SDS011;15917;50.014;8.352;2023-03-08T01:32:25;2.15;;;1.13;;
28760;SDS011;15917;50.014;8.352;2023-03-08T01:34:51;1.30;;;0.77;;
28760;SDS011;15917;50.014;8.352;2023-03-08T01:37:17;3.28;;;1.50;;
28760;SDS011;15917;50.014;8.352;2023-03-08T01:39:43;3.75;;;1.10;;
28760;SDS011;15917;50.014;8.352;2023-03-08T01:42:09;3.08;;;1.33;;
28760;SDS011;15917;50.014;8.352;2023-03-08T01:44:51;1.90;;;1.27;;
28760;SDS011;15917;50.014;8.352;2023-03-08T01:47:18;4.65;;;1.95;;
28760;SDS011;15917;50.014;8.352;2023-03-08T01:50:07;2.13;;;1.45;;
28760;SDS011;15917;50.014;8.352;2023-03-08T01:52:39;6.07;;;2.22;;
28760;SDS011;15917;50.014;8.352;2023-03-08T01:55:11;5.85;;;3.05;;
28760;SDS011;15917;50.014;8.352;2023-03-08T01:57:39;3.05;;;2.05;;
28760;SDS011;15917;50.014;8.352;2023-03-08T02:00:18;3.10;;;1.70;;
28760;SDS011;15917;50.014;8.352;2023-03-08T02:02:56;4.65;;;2.00;;
28760;SDS011;15917;50.014;8.352;2023-03-08T02:05:29;7.07;;;2.22;;
28760;SDS011;15917;50.014;8.352;2023-03-08T02:08:02;6.65;;;2.95;;
28760;SDS011;15917;50.014;8.352;2023-03-08T02:10:32;4.82;;;2.30;;
28760;SDS011;15917;50.014;8.352;2023-03-08T02:12:59;5.22;;;2.42;;
28760;SDS011;15917;50.014;8.352;2023-03-08T02:15:25;4.07;;;2.55;;
28760;SDS011;15917;50.014;8.352;2023-03-08T02:17:54;4.43;;;2.33;;
28760;SDS011;15917;50.014;8.352;2023-03-08T02:20:24;5.47;;;1.70;;
28760;SDS011;15917;50.014;8.352;2023-03-08T02:22:50;5.63;;;2.67;;
28760;SDS011;15917;50.014;8.352;2023-03-08T02:27:44;4.65;;;2.45;;
28760;SDS011;15917;50.014;8.352;2023-03-08T02:30:11;4.03;;;2.85;;
28760;SDS011;15917;50.014;8.352;2023-03-08T02:32:39;4.68;;;2.50;;
28760;SDS011;15917;50.014;8.352;2023-03-08T02:35:05;5.35;;;2.53;;
28760;SDS011;15917;50.014;8.352;2023-03-08T02:37:31;2.97;;;1.95;;
28760;SDS011;15917;50.014;8.352;2023-03-08T02:39:57;5.03;;;3.13;;
28760;SDS011;15917;50.014;8.352;2023-03-08T02:42:23;4.82;;;2.70;;
28760;SDS011;15917;50.014;8.352;2023-03-08T02:44:49;4.90;;;2.75;;
28760;SDS011;15917;50.014;8.352;2023-03-08T02:47:15;4.78;;;2.75;;
28760;SDS011;15917;50.014;8.352;2023-03-08T02:49:41;7.18;;;3.47;;
28760;SDS011;15917;50.014;8.352;2023-03-08T02:52:08;6.00;;;3.92;;
28760;SDS011;15917;50.014;8.352;2023-03-08T02:54:33;8.65;;;3.70;;
28760;SDS011;15917;50.014;8.352;2023-03-08T02:56:59;6.10;;;3.72;;
28760;SDS011;15917;50.014;8.352;2023-03-08T02:59:25;7.32;;;4.07;;
28760;SDS011;15917;50.014;8.352;2023-03-08T03:01:53;5.50;;;3.53;;
28760;SDS011;15917;50.014;8.352;2023-03-08T03:04:19;9.88;;;4.60;;
28760;SDS011;15917;50.014;8.352;2023-03-08T03:06:46;7.20;;;4.63;;
28760;SDS011;15917;50.014;8.352;2023-03-08T03:09:12;8.57;;;4.07;;
28760;SDS011;15917;50.014;8.352;2023-03-08T03:11:38;7.57;;;4.13;;
28760;SDS011;15917;50.014;8.352;2023-03-08T03:14:05;6.15;;;4.10;;
28760;SDS011;15917;50.014;8.352;2023-03-08T03:16:36;8.05;;;4.53;;
28760;SDS011;15917;50.014;8.352;2023-03-08T03:19:02;9.68;;;4.57;;
28760;SDS011;15917;50.014;8.352;2023-03-08T03:21:27;7.20;;;3.97;;
28760;SDS011;15917;50.014;8.352;2023-03-08T03:23:53;12.88;;;4.75;;
28760;SDS011;15917;50.014;8.352;2023-03-08T03:26:25;11.80;;;4.97;;
28760;SDS011;15917;50.014;8.352;2023-03-08T03:28:55;11.85;;;5.25;;
28760;SDS011;15917;50.014;8.352;2023-03-08T03:31:24;11.00;;;6.25;;
28760;SDS011;15917;50.014;8.352;2023-03-08T03:33:51;10.07;;;5.07;;
28760;SDS011;15917;50.014;8.352;2023-03-08T03:36:19;9.82;;;5.35;;
28760;SDS011;15917;50.014;8.352;2023-03-08T03:38:46;11.10;;;6.07;;
28760;SDS011;15917;50.014;8.352;2023-03-08T03:41:14;12.17;;;5.10;;
28760;SDS011;15917;50.014;8.352;2023-03-08T03:43:49;11.43;;;4.78;;
28760;SDS011;15917;50.014;8.352;2023-03-08T03:46:16;10.10;;;5.43;;
28760;SDS011;15917;50.014;8.352;2023-03-08T03:48:46;11.27;;;6.03;;
28760;SDS011;15917;50.014;8.352;2023-03-08T03:51:17;9.52;;;4.90;;
28760;SDS011;15917;50.014;8.352;2023-03-08T03:53:48;12.82;;;5.72;;
28760;SDS011;15917;50.014;8.352;2023-03-08T03:56:19;10.77;;;5.72;;
28760;SDS011;15917;50.014;8.352;2023-03-08T03:58:48;11.65;;;5.78;;
28760;SDS011;15917;50.014;8.352;2023-03-08T04:01:21;13.63;;;6.32;;
28760;SDS011;15917;50.014;8.352;2023-03-08T04:03:51;13.18;;;6.38;;
28760;SDS011;15917;50.014;8.352;2023-03-08T04:06:22;11.32;;;5.60;;
28760;SDS011;15917;50.014;8.352;2023-03-08T04:08:54;12.73;;;6.28;;
28760;SDS011;15917;50.014;8.352;2023-03-08T04:11:24;13.52;;;6.47;;
28760;SDS011;15917;50.014;8.352;2023-03-08T04:13:51;15.75;;;7.15;;
28760;SDS011;15917;50.014;8.352;2023-03-08T04:16:21;18.83;;;7.32;;
28760;SDS011;15917;50.014;8.352;2023-03-08T04:18:54;15.73;;;7.00;;
28760;SDS011;15917;50.014;8.352;2023-03-08T04:21:23;16.50;;;7.63;;
28760;SDS011;15917;50.014;8.352;2023-03-08T04:23:50;18.38;;;7.63;;
28760;SDS011;15917;50.014;8.352;2023-03-08T04:26:16;16.02;;;7.45;;
28760;SDS011;15917;50.014;8.352;2023-03-08T04:28:42;15.95;;;8.27;;
28760;SDS011;15917;50.014;8.352;2023-03-08T04:33:40;28.92;;;8.50;;
28760;SDS011;15917;50.014;8.352;2023-03-08T04:36:06;20.27;;;9.25;;
28760;SDS011;15917;50.014;8.352;2023-03-08T04:38:32;23.08;;;9.43;;
28760;SDS011;15917;50.014;8.352;2023-03-08T04:40:58;30.17;;;9.68;;
28760;SDS011;15917;50.014;8.352;2023-03-08T04:43:52;21.58;;;9.90;;
28760;SDS011;15917;50.014;8.352;2023-03-08T04:46:26;24.27;;;8.88;;
28760;SDS011;15917;50.014;8.352;2023-03-08T04:48:53;22.35;;;10.70;;
28760;SDS011;15917;50.014;8.352;2023-03-08T04:51:22;27.70;;;10.93;;
28760;SDS011;15917;50.014;8.352;2023-03-08T04:53:50;21.88;;;9.85;;
28760;SDS011;15917;50.014;8.352;2023-03-08T04:56:15;22.05;;;9.88;;
28760;SDS011;15917;50.014;8.352;2023-03-08T04:58:42;22.60;;;10.05;;
28760;SDS011;15917;50.014;8.352;2023-03-08T05:01:10;23.25;;;9.82;;
28760;SDS011;15917;50.014;8.352;2023-03-08T05:03:39;25.60;;;10.27;;
28760;SDS011;15917;50.014;8.352;2023-03-08T05:06:06;22.10;;;10.10;;
28760;SDS011;15917;50.014;8.352;2023-03-08T05:08:32;20.17;;;10.00;;
28760;SDS011;15917;50.014;8.352;2023-03-08T05:10:58;24.55;;;10.30;;
28760;SDS011;15917;50.014;8.352;2023-03-08T05:13:28;22.85;;;9.15;;
28760;SDS011;15917;50.014;8.352;2023-03-08T05:15:55;24.95;;;10.60;;
28760;SDS011;15917;50.014;8.352;2023-03-08T05:18:21;21.27;;;10.15;;
28760;SDS011;15917;50.014;8.352;2023-03-08T05:20:57;23.35;;;10.10;;
28760;SDS011;15917;50.014;8.352;2023-03-08T05:23:35;25.95;;;9.65;;
28760;SDS011;15917;50.014;8.352;2023-03-08T05:26:01;20.50;;;10.38;;
28760;SDS011;15917;50.014;8.352;2023-03-08T05:28:29;22.15;;;10.32;;
28760;SDS011;15917;50.014;8.352;2023-03-08T05:31:00;26.17;;;10.77;;
28760;SDS011;15917;50.014;8.352;2023-03-08T05:33:37;21.40;;;10.05;;
28760;SDS011;15917;50.014;8.352;2023-03-08T05:36:04;21.42;;;9.90;;
28760;SDS011;15917;50.014;8.352;2023-03-08T05:41:00;26.45;;;11.13;;
28760;SDS011;15917;50.014;8.352;2023-03-08T05:43:27;25.42;;;10.23;;
28760;SDS011;15917;50.014;8.352;2023-03-08T05:45:56;25.42;;;10.95;;
28760;SDS011;15917;50.014;8.352;2023-03-08T05:48:24;25.35;;;11.60;;
28760;SDS011;15917;50.014;8.352;2023-03-08T05:50:51;23.08;;;10.30;;
28760;SDS011;15917;50.014;8.352;2023-03-08T05:53:17;25.27;;;10.15;;
28760;SDS011;15917;50.014;8.352;2023-03-08T05:55:44;37.38;;;10.70;;
28760;SDS011;15917;50.014;8.352;2023-03-08T05:58:10;22.25;;;10.45;;
28760;SDS011;15917;50.014;8.352;2023-03-08T06:00:36;29.40;;;11.80;;
28760;SDS011;15917;50.014;8.352;2023-03-08T06:03:02;26.67;;;11.40;;
28760;SDS011;15917;50.014;8.352;2023-03-08T06:05:29;28.25;;;10.50;;
28760;SDS011;15917;50.014;8.352;2023-03-08T06:07:56;21.33;;;10.35;;
28760;SDS011;15917;50.014;8.352;2023-03-08T06:10:22;24.52;;;10.70;;
28760;SDS011;15917;50.014;8.352;2023-03-08T06:12:48;26.67;;;10.48;;
28760;SDS011;15917;50.014;8.352;2023-03-08T06:15:16;26.38;;;9.82;;
28760;SDS011;15917;50.014;8.352;2023-03-08T06:17:42;27.48;;;10.65;;
28760;SDS011;15917;50.014;8.352;2023-03-08T06:20:11;28.65;;;10.88;;
28760;SDS011;15917;50.014;8.352;2023-03-08T06:22:40;28.88;;;10.60;;
28760;SDS011;15917;50.014;8.352;2023-03-08T06:25:06;22.77;;;10.23;;
28760;SDS011;15917;50.014;8.352;2023-03-08T06:27:34;25.27;;;9.98;;
28760;SDS011;15917;50.014;8.352;2023-03-08T06:30:04;23.08;;;11.00;;
28760;SDS011;15917;50.014;8.352;2023-03-08T06:32:31;22.70;;;10.73;;
28760;SDS011;15917;50.014;8.352;2023-03-08T06:34:58;24.87;;;10.70;;
28760;SDS011;15917;50.014;8.352;2023-03-08T06:37:24;42.03;;;10.95;;
28760;SDS011;15917;50.014;8.352;2023-03-08T06:39:49;28.73;;;9.25;;
28760;SDS011;15917;50.014;8.352;2023-03-08T06:42:15;20.02;;;9.10;;
28760;SDS011;15917;50.014;8.352;2023-03-08T06:44:41;17.38;;;8.63;;
28760;SDS011;15917;50.014;8.352;2023-03-08T06:47:07;22.65;;;10.35;;
28760;SDS011;15917;50.014;8.352;2023-03-08T06:49:33;20.70;;;8.90;;
28760;SDS011;15917;50.014;8.352;2023-03-08T06:51:59;22.48;;;10.10;;
28760;SDS011;15917;50.014;8.352;2023-03-08T06:54:26;21.10;;;9.20;;
28760;SDS011;15917;50.014;8.352;2023-03-08T06:56:52;22.15;;;9.35;;
28760;SDS011;15917;50.014;8.352;2023-03-08T06:59:18;25.90;;;9.50;;
28760;SDS011;15917;50.014;8.352;2023-03-08T07:01:43;24.90;;;9.75;;
28760;SDS011;15917;50.014;8.352;2023-03-08T07:04:09;23.23;;;10.07;;
28760;SDS011;15917;50.014;8.352;2023-03-08T07:06:34;26.33;;;10.23;;
28760;SDS011;15917;50.014;8.352;2023-03-08T07:09:00;22.88;;;10.82;;
28760;SDS011;15917;50.014;8.352;2023-03-08T07:11:25;25.10;;;9.32;;
28760;SDS011;15917;50.014;8.352;2023-03-08T07:13:53;27.92;;;9.80;;
28760;SDS011;15917;50.014;8.352;2023-03-08T07:16:19;19.52;;;9.80;;
28760;SDS011;15917;50.014;8.352;2023-03-08T07:18:44;21.10;;;8.98;;
28760;SDS011;15917;50.014;8.352;2023-03-08T07:21:11;23.27;;;9.38;;
28760;SDS011;15917;50.014;8.352;2023-03-08T07:23:37;23.83;;;9.98;;
28760;SDS011;15917;50.014;8.352;2023-03-08T07:26:03;21.20;;;10.50;;
28760;SDS011;15917;50.014;8.352;2023-03-08T07:28:32;22.20;;;9.18;;
28760;SDS011;15917;50.014;8.352;2023-03-08T07:30:58;21.10;;;10.05;;
28760;SDS011;15917;50.014;8.352;2023-03-08T07:33:24;24.15;;;9.80;;
28760;SDS011;15917;50.014;8.352;2023-03-08T07:35:50;22.33;;;9.60;;
28760;SDS011;15917;50.014;8.352;2023-03-08T07:38:16;24.02;;;10.15;;
28760;SDS011;15917;50.014;8.352;2023-03-08T07:40:41;27.23;;;11.07;;
28760;SDS011;15917;50.014;8.352;2023-03-08T07:43:07;22.67;;;10.05;;
28760;SDS011;15917;50.014;8.352;2023-03-08T07:45:53;22.40;;;9.82;;
28760;SDS011;15917;50.014;8.352;2023-03-08T07:48:18;26.08;;;10.85;;
28760;SDS011;15917;50.014;8.352;2023-03-08T07:50:44;25.75;;;11.25;;
28760;SDS011;15917;50.014;8.352;2023-03-08T07:53:10;26.58;;;9.55;;
28760;SDS011;15917;50.014;8.352;2023-03-08T07:55:35;26.60;;;10.63;;
28760;SDS011;15917;50.014;8.352;2023-03-08T07:58:02;32.63;;;10.20;;
28760;SDS011;15917;50.014;8.352;2023-03-08T08:00:27;25.98;;;11.30;;
28760;SDS011;15917;50.014;8.352;2023-03-08T08:02:53;33.95;;;12.73;;
28760;SDS011;15917;50.014;8.352;2023-03-08T08:05:19;30.38;;;12.57;;
28760;SDS011;15917;50.014;8.352;2023-03-08T08:07:46;28.85;;;13.00;;
28760;SDS011;15917;50.014;8.352;2023-03-08T08:10:17;31.35;;;12.45;;
28760;SDS011;15917;50.014;8.352;2023-03-08T08:12:43;33.72;;;12.82;;
28760;SDS011;15917;50.014;8.352;2023-03-08T08:15:08;40.08;;;14.45;;
28760;SDS011;15917;50.014;8.352;2023-03-08T08:17:34;34.83;;;13.32;;
28760;SDS011;15917;50.014;8.352;2023-03-08T08:20:00;36.97;;;14.43;;
28760;SDS011;15917;50.014;8.352;2023-03-08T08:22:25;38.97;;;14.95;;
28760;SDS011;15917;50.014;8.352;2023-03-08T08:24:51;36.50;;;13.60;;
28760;SDS011;15917;50.014;8.352;2023-03-08T08:27:17;30.38;;;12.93;;
28760;SDS011;15917;50.014;8.352;2023-03-08T08:29:42;34.38;;;14.00;;
28760;SDS011;15917;50.014;8.352;2023-03-08T08:32:10;36.45;;;14.45;;
28760;SDS011;15917;50.014;8.352;2023-03-08T08:34:35;31.02;;;14.40;;
28760;SDS011;15917;50.014;8.352;2023-03-08T08:37:01;36.30;;;13.27;;
28760;SDS011;15917;50.014;8.352;2023-03-08T08:39:27;29.95;;;13.05;;
28760;SDS011;15917;50.014;8.352;2023-03-08T08:41:52;40.97;;;13.60;;
28760;SDS011;15917;50.014;8.352;2023-03-08T08:44:18;31.77;;;13.15;;
28760;SDS011;15917;50.014;8.352;2023-03-08T08:46:44;30.92;;;12.80;;
28760;SDS011;15917;50.014;8.352;2023-03-08T08:49:09;31.08;;;13.70;;
28760;SDS011;15917;50.014;8.352;2023-03-08T08:51:35;32.30;;;13.55;;
28760;SDS011;15917;50.014;8.352;2023-03-08T08:54:01;31.58;;;12.85;;
28760;SDS011;15917;50.014;8.352;2023-03-08T08:56:26;32.13;;;14.02;;
28760;SDS011;15917;50.014;8.352;2023-03-08T08:58:54;33.50;;;14.20;;
28760;SDS011;15917;50.014;8.352;2023-03-08T09:01:22;38.92;;;13.20;;
28760;SDS011;15917;50.014;8.352;2023-03-08T09:03:50;36.80;;;13.45;;
28760;SDS011;15917;50.014;8.352;2023-03-08T09:06:16;35.15;;;14.30;;
28760;SDS011;15917;50.014;8.352;2023-03-08T09:08:44;36.08;;;14.60;;
28760;SDS011;15917;50.014;8.352;2023-03-08T09:11:12;34.55;;;14.30;;
28760;SDS011;15917;50.014;8.352;2023-03-08T09:13:38;31.88;;;14.27;;
28760;SDS011;15917;50.014;8.352;2023-03-08T09:16:05;36.00;;;14.25;;
28760;SDS011;15917;50.014;8.352;2023-03-08T09:18:40;33.95;;;14.88;;
28760;SDS011;15917;50.014;8.352;2023-03-08T09:21:05;36.50;;;13.85;;
28760;SDS011;15917;50.014;8.352;2023-03-08T09:23:31;35.50;;;14.38;;
28760;SDS011;15917;50.014;8.352;2023-03-08T09:25:57;40.67;;;15.80;;
28760;SDS011;15917;50.014;8.352;2023-03-08T09:28:23;40.58;;;15.38;;
28760;SDS011;15917;50.014;8.352;2023-03-08T09:30:48;37.35;;;15.50;;
28760;SDS011;15917;50.014;8.352;2023-03-08T09:33:14;33.33;;;15.32;;
28760;SDS011;15917;50.014;8.352;2023-03-08T09:35:40;40.80;;;17.05;;
28760;SDS011;15917;50.014;8.352;2023-03-08T09:38:05;37.55;;;17.42;;
28760;SDS011;15917;50.014;8.352;2023-03-08T09:40:33;37.65;;;17.25;;
28760;SDS011;15917;50.014;8.352;2023-03-08T09:43:08;39.00;;;16.60;;
28760;SDS011;15917;50.014;8.352;2023-03-08T09:45:50;47.40;;;16.23;;
28760;SDS011;15917;50.014;8.352;2023-03-08T09:48:22;36.03;;;15.95;;
28760;SDS011;15917;50.014;8.352;2023-03-08T09:50:54;43.88;;;18.67;;
28760;SDS011;15917;50.014;8.352;2023-03-08T09:53:27;42.47;;;19.08;;
28760;SDS011;15917;50.014;8.352;2023-03-08T09:56:20;45.42;;;18.73;;
28760;SDS011;15917;50.014;8.352;2023-03-08T10:04:40;41.28;;;18.20;;
28760;SDS011;15917;50.014;8.352;2023-03-08T10:10:00;37.05;;;18.55;;
28760;SDS011;15917;50.014;8.352;2023-03-08T10:15:42;40.63;;;17.80;;
28760;SDS011;15917;50.014;8.352;2023-03-08T10:18:16;41.35;;;17.80;;
28760;SDS011;15917;50.014;8.352;2023-03-08T10:20:50;36.08;;;17.48;;
28760;SDS011;15917;50.014;8.352;2023-03-08T10:23:21;38.38;;;18.70;;
28760;SDS011;15917;50.014;8.352;2023-03-08T10:25:47;39.42;;;19.10;;
28760;SDS011;15917;50.014;8.352;2023-03-08T10:28:15;41.50;;;20.70;;
28760;SDS011;15917;50.014;8.352;2023-03-08T10:30:50;34.63;;;18.02;;
28760;SDS011;15917;50.014;8.352;2023-03-08T10:33:18;46.75;;;20.35;;
28760;SDS011;15917;50.014;8.352;2023-03-08T10:35:52;39.83;;;19.35;;
28760;SDS011;15917;50.014;8.352;2023-03-08T10:38:20;42.17;;;19.83;;
28760;SDS011;15917;50.014;8.352;2023-03-08T10:40:46;46.33;;;20.00;;
28760;SDS011;15917;50.014;8.352;2023-03-08T10:43:17;53.60;;;21.10;;
28760;SDS011;15917;50.014;8.352;2023-03-08T10:46:03;38.70;;;20.42;;
28760;SDS011;15917;50.014;8.352;2023-03-08T10:48:37;43.35;;;20.35;;
28760;SDS011;15917;50.014;8.352;2023-03-08T10:51:05;46.13;;;22.02;;
28760;SDS011;15917;50.014;8.352;2023-03-08T10:53:39;42.50;;;21.10;;
28760;SDS011;15917;50.014;8.352;2023-03-08T10:56:19;39.45;;;20.50;;
28760;SDS011;15917;50.014;8.352;2023-03-08T10:58:56;49.33;;;20.88;;
28760;SDS011;15917;50.014;8.352;2023-03-08T11:01:27;42.33;;;20.73;;
28760;SDS011;15917;50.014;8.352;2023-03-08T11:04:04;39.67;;;20.73;;
28760;SDS011;15917;50.014;8.352;2023-03-08T11:06:37;43.30;;;20.25;;
28760;SDS011;15917;50.014;8.352;2023-03-08T11:09:04;38.97;;;20.50;;
28760;SDS011;15917;50.014;8.352;2023-03-08T11:11:51;41.90;;;19.03;;
28760;SDS011;15917;50.014;8.352;2023-03-08T11:14:18;38.70;;;19.30;;
28760;SDS011;15917;50.014;8.352;2023-03-08T11:16:48;45.00;;;20.17;;
28760;SDS011;15917;50.014;8.352;2023-03-08T11:31:10;37.60;;;19.15;;
28760;SDS011;15917;50.014;8.352;2023-03-08T11:36:38;36.88;;;18.65;;
28760;SDS011;15917;50.014;8.352;2023-03-08T11:39:34;43.90;;;20.08;;
28760;SDS011;15917;50.014;8.352;2023-03-08T11:48:08;37.08;;;17.88;;
28760;SDS011;15917;50.014;8.352;2023-03-08T11:50:52;34.83;;;18.63;;
28760;SDS011;15917;50.014;8.352;2023-03-08T11:59:14;33.75;;;17.95;;
28760;SDS011;15917;50.014;8.352;2023-03-08T12:01:46;32.85;;;17.77;;
28760;SDS011;15917;50.014;8.352;2023-03-08T12:04:18;30.45;;;16.95;;
28760;SDS011;15917;50.014;8.352;2023-03-08T12:06:50;33.25;;;18.95;;
28760;SDS011;15917;50.014;8.352;2023-03-08T12:12:02;48.50;;;25.45;;
28760;SDS011;15917;50.014;8.352;2023-03-08T12:14:45;54.88;;;24.85;;
28760;SDS011;15917;50.014;8.352;2023-03-08T12:17:26;49.53;;;26.88;;
28760;SDS011;15917;50.014;8.352;2023-03-08T12:19:56;44.13;;;23.55;;
28760;SDS011;15917;50.014;8.352;2023-03-08T12:27:48;34.97;;;19.63;;
28760;SDS011;15917;50.014;8.352;2023-03-08T12:30:39;36.72;;;18.95;;
28760;SDS011;15917;50.014;8.352;2023-03-08T12:33:20;31.02;;;17.15;;
28760;SDS011;15917;50.014;8.352;2023-03-08T12:40:47;28.95;;;16.77;;
28760;SDS011;15917;50.014;8.352;2023-03-08T12:48:24;34.88;;;18.27;;
28760;SDS011;15917;50.014;8.352;2023-03-08T12:53:33;32.38;;;16.90;;
28760;SDS011;15917;50.014;8.352;2023-03-08T12:58:33;39.35;;;18.70;;
28760;SDS011;15917;50.014;8.352;2023-03-08T13:01:32;38.28;;;17.80;;
28760;SDS011;15917;50.014;8.352;2023-03-08T13:09:56;29.90;;;17.05;;
28760;SDS011;15917;50.014;8.352;2023-03-08T13:12:26;32.45;;;18.05;;
28760;SDS011;15917;50.014;8.352;2023-03-08T13:17:40;36.28;;;20.05;;
28760;SDS011;15917;50.014;8.352;2023-03-08T13:20:39;37.90;;;20.05;;
28760;SDS011;15917;50.014;8.352;2023-03-08T13:28:47;37.33;;;20.27;;
28760;SDS011;15917;50.014;8.352;2023-03-08T13:31:17;39.85;;;20.40;;
28760;SDS011;15917;50.014;8.352;2023-03-08T13:33:46;30.95;;;19.13;;
28760;SDS011;15917;50.014;8.352;2023-03-08T13:36:21;32.88;;;19.08;;
28760;SDS011;15917;50.014;8.352;2023-03-08T13:38:56;32.17;;;18.02;;
28760;SDS011;15917;50.014;8.352;2023-03-08T13:44:05;32.97;;;18.80;;
28760;SDS011;15917;50.014;8.352;2023-03-08T13:46:37;40.45;;;19.80;;
28760;SDS011;15917;50.014;8.352;2023-03-08T13:49:11;33.10;;;18.23;;
28760;SDS011;15917;50.014;8.352;2023-03-08T13:51:43;36.30;;;19.00;;
28760;SDS011;15917;50.014;8.352;2023-03-08T13:54:13;33.15;;;18.67;;
28760;SDS011;15917;50.014;8.352;2023-03-08T13:56:41;34.67;;;18.08;;
28760;SDS011;15917;50.014;8.352;2023-03-08T13:59:11;30.98;;;16.73;;
28760;SDS011;15917;50.014;8.352;2023-03-08T14:01:46;28.02;;;15.27;;
28760;SDS011;15917;50.014;8.352;2023-03-08T14:04:21;31.20;;;15.63;;
28760;SDS011;15917;50.014;8.352;2023-03-08T14:06:50;26.17;;;13.85;;
28760;SDS011;15917;50.014;8.352;2023-03-08T14:09:17;30.00;;;15.18;;
28760;SDS011;15917;50.014;8.352;2023-03-08T14:11:44;26.52;;;15.10;;
28760;SDS011;15917;50.014;8.352;2023-03-08T14:14:19;28.15;;;15.73;;
28760;SDS011;15917;50.014;8.352;2023-03-08T14:16:51;29.70;;;14.48;;
28760;SDS011;15917;50.014;8.352;2023-03-08T14:21:55;30.80;;;15.85;;
28760;SDS011;15917;50.014;8.352;2023-03-08T14:24:24;28.55;;;15.52;;
28760;SDS011;15917;50.014;8.352;2023-03-08T14:26:56;31.45;;;16.90;;
28760;SDS011;15917;50.014;8.352;2023-03-08T14:29:31;31.55;;;15.90;;
28760;SDS011;15917;50.014;8.352;2023-03-08T14:34:40;29.58;;;16.80;;
28760;SDS011;15917;50.014;8.352;2023-03-08T14:39:36;30.40;;;17.85;;
28760;SDS011;15917;50.014;8.352;2023-03-08T14:42:23;36.53;;;18.85;;
28760;SDS011;15917;50.014;8.352;2023-03-08T14:45:23;38.95;;;20.73;;
28760;SDS011;15917;50.014;8.352;2023-03-08T14:53:59;40.47;;;22.92;;
28760;SDS011;15917;50.014;8.352;2023-03-08T14:56:27;49.55;;;23.70;;
28760;SDS011;15917;50.014;8.352;2023-03-08T14:58:54;51.60;;;25.45;;
28760;SDS011;15917;50.014;8.352;2023-03-08T15:01:32;49.63;;;26.10;;
28760;SDS011;15917;50.014;8.352;2023-03-08T15:04:00;46.28;;;24.95;;
28760;SDS011;15917;50.014;8.352;2023-03-08T15:06:27;49.92;;;24.50;;
28760;SDS011;15917;50.014;8.352;2023-03-08T15:08:55;45.80;;;25.55;;
28760;SDS011;15917;50.014;8.352;2023-03-08T15:11:23;50.85;;;26.98;;
28760;SDS011;15917;50.014;8.352;2023-03-08T15:13:49;45.35;;;24.73;;
28760;SDS011;15917;50.014;8.352;2023-03-08T15:16:15;53.35;;;25.50;;
28760;SDS011;15917;50.014;8.352;2023-03-08T15:18:41;45.70;;;24.27;;
28760;SDS011;15917;50.014;8.352;2023-03-08T15:21:09;47.40;;;23.70;;
28760;SDS011;15917;50.014;8.352;2023-03-08T15:23:38;71.95;;;41.97;;
28760;SDS011;15917;50.014;8.352;2023-03-08T15:26:05;53.55;;;32.22;;
28760;SDS011;15917;50.014;8.352;2023-03-08T15:28:31;42.13;;;23.85;;
28760;SDS011;15917;50.014;8.352;2023-03-08T15:30:56;41.42;;;23.80;;
28760;SDS011;15917;50.014;8.352;2023-03-08T15:33:22;42.08;;;23.70;;
28760;SDS011;15917;50.014;8.352;2023-03-08T15:35:48;72.45;;;33.58;;
28760;SDS011;15917;50.014;8.352;2023-03-08T15:38:15;44.35;;;23.88;;
28760;SDS011;15917;50.014;8.352;2023-03-08T15:40:42;36.97;;;17.70;;
28760;SDS011;15917;50.014;8.352;2023-03-08T15:43:08;42.95;;;22.60;;
28760;SDS011;15917;50.014;8.352;2023-03-08T15:45:34;31.63;;;18.10;;
28760;SDS011;15917;50.014;8.352;2023-03-08T15:48:02;22.38;;;13.63;;
28760;SDS011;15917;50.014;8.352;2023-03-08T15:50:30;26.70;;;15.07;;
28760;SDS011;15917;50.014;8.352;2023-03-08T15:52:56;25.55;;;15.73;;
28760;SDS011;15917;50.014;8.352;2023-03-08T15:55:23;26.42;;;15.57;;
28760;SDS011;15917;50.014;8.352;2023-03-08T16:00:16;32.80;;;17.13;;
28760;SDS011;15917;50.014;8.352;2023-03-08T16:02:44;32.53;;;17.10;;
28760;SDS011;15917;50.014;8.352;2023-03-08T16:05:10;70.70;;;34.58;;
28760;SDS011;15917;50.014;8.352;2023-03-08T16:07:37;44.72;;;22.77;;
28760;SDS011;15917;50.014;8.352;2023-03-08T16:10:04;42.05;;;23.23;;
28760;SDS011;15917;50.014;8.352;2023-03-08T16:12:31;48.55;;;24.85;;
28760;SDS011;15917;50.014;8.352;2023-03-08T16:14:57;46.83;;;22.27;;
28760;SDS011;15917;50.014;8.352;2023-03-08T16:17:23;101.20;;;48.70;;
28760;SDS011;15917;50.014;8.352;2023-03-08T16:19:50;44.10;;;25.58;;
28760;SDS011;15917;50.014;8.352;2023-03-08T16:22:16;44.80;;;22.75;;
28760;SDS011;15917;50.014;8.352;2023-03-08T16:24:42;35.83;;;19.80;;